sensor_id;sensor_type;location;lat;lon;timestamp;P1;durP1;ratioP1;P2;durP2;ratioP2
12480;SDS011;6305;48.398;11.762;2023-05-31T00:01:39;8.32;;;2.70;;
12480;SDS011;6305;48.398;11.762;2023-05-31T00:04:06;5.95;;;2.55;;
12480;SDS011;6305;48.398;11.762;2023-05-31T00:06:34;3.72;;;2.70;;
12480;SDS011;6305;48.398;11.762;2023-05-31T00:09:02;5.03;;;2.50;;
12480;SDS011;6305;48.398;11.762;2023-05-31T00:11:29;4.28;;;2.40;;
12480;SDS011;6305;48.398;11.762;2023-05-31T00:13:56;5.75;;;2.45;;
12480;SDS011;6305;48.398;11.762;2023-05-31T00:16:23;4.93;;;2.40;;
12480;SDS011;6305;48.398;11.762;2023-05-31T00:18:50;5.30;;;2.40;;
12480;SDS011;6305;48.398;11.762;2023-05-31T00:21:17;2.60;;;2.00;;
12480;SDS011;6305;48.398;11.762;2023-05-31T00:23:45;7.13;;;2.40;;
12480;SDS011;6305;48.398;11.762;2023-05-31T00:26:12;3.63;;;2.35;;
12480;SDS011;6305;48.398;11.762;2023-05-31T00:28:41;6.53;;;2.80;;
12480;SDS011;6305;48.398;11.762;2023-05-31T00:31:08;4.90;;;2.22;;
12480;SDS011;6305;48.398;11.762;2023-05-31T00:33:35;5.97;;;2.15;;
12480;SDS011;6305;48.398;11.762;2023-05-31T00:36:02;4.97;;;2.40;;
12480;SDS011;6305;48.398;11.762;2023-05-31T00:38:30;5.63;;;2.20;;
12480;SDS011;6305;48.398;11.762;2023-05-31T00:40:58;4.25;;;2.17;;
12480;SDS011;6305;48.398;11.762;2023-05-31T00:43:25;5.28;;;2.30;;
12480;SDS011;6305;48.398;11.762;2023-05-31T00:45:52;6.10;;;2.40;;
12480;SDS011;6305;48.398;11.762;2023-05-31T00:48:19;3.15;;;1.98;;
12480;SDS011;6305;48.398;11.762;2023-05-31T00:50:47;4.47;;;2.40;;
12480;SDS011;6305;48.398;11.762;2023-05-31T00:53:15;3.80;;;2.15;;
12480;SDS011;6305;48.398;11.762;2023-05-31T00:55:43;4.43;;;2.20;;
12480;SDS011;6305;48.398;11.762;2023-05-31T00:58:12;4.35;;;2.35;;
12480;SDS011;6305;48.398;11.762;2023-05-31T01:00:39;7.15;;;2.65;;
12480;SDS011;6305;48.398;11.762;2023-05-31T01:03:06;4.82;;;2.42;;
12480;SDS011;6305;48.398;11.762;2023-05-31T01:05:34;4.10;;;2.20;;
12480;SDS011;6305;48.398;11.762;2023-05-31T01:08:01;5.85;;;2.55;;
12480;SDS011;6305;48.398;11.762;2023-05-31T01:10:28;2.97;;;2.10;;
12480;SDS011;6305;48.398;11.762;2023-05-31T01:12:59;2.83;;;2.00;;
12480;SDS011;6305;48.398;11.762;2023-05-31T01:15:33;4.00;;;2.22;;
12480;SDS011;6305;48.398;11.762;2023-05-31T01:18:06;4.22;;;2.28;;
12480;SDS011;6305;48.398;11.762;2023-05-31T01:20:39;3.55;;;1.75;;
12480;SDS011;6305;48.398;11.762;2023-05-31T01:23:18;6.22;;;2.30;;
12480;SDS011;6305;48.398;11.762;2023-05-31T01:26:04;4.95;;;2.42;;
12480;SDS011;6305;48.398;11.762;2023-05-31T01:28:49;4.97;;;2.10;;
12480;SDS011;6305;48.398;11.762;2023-05-31T01:31:19;2.97;;;2.05;;
12480;SDS011;6305;48.398;11.762;2023-05-31T01:33:47;4.50;;;2.33;;
12480;SDS011;6305;48.398;11.762;2023-05-31T01:36:16;3.42;;;2.10;;
12480;SDS011;6305;48.398;11.762;2023-05-31T01:38:43;3.70;;;2.17;;
12480;SDS011;6305;48.398;11.762;2023-05-31T01:41:10;5.07;;;2.20;;
12480;SDS011;6305;48.398;11.762;2023-05-31T01:43:40;6.57;;;2.22;;
12480;SDS011;6305;48.398;11.762;2023-05-31T01:46:09;5.65;;;2.40;;
12480;SDS011;6305;48.398;11.762;2023-05-31T01:48:37;4.75;;;2.30;;
12480;SDS011;6305;48.398;11.762;2023-05-31T01:51:08;7.65;;;2.50;;
12480;SDS011;6305;48.398;11.762;2023-05-31T01:53:38;2.95;;;2.05;;
12480;SDS011;6305;48.398;11.762;2023-05-31T01:56:05;5.43;;;2.45;;
12480;SDS011;6305;48.398;11.762;2023-05-31T01:58:34;5.07;;;2.42;;
12480;SDS011;6305;48.398;11.762;2023-05-31T02:01:07;4.30;;;2.38;;
12480;SDS011;6305;48.398;11.762;2023-05-31T02:03:36;3.88;;;2.15;;
12480;SDS011;6305;48.398;11.762;2023-05-31T02:06:04;3.05;;;2.20;;
12480;SDS011;6305;48.398;11.762;2023-05-31T02:08:31;5.00;;;2.08;;
12480;SDS011;6305;48.398;11.762;2023-05-31T02:11:00;3.08;;;2.28;;
12480;SDS011;6305;48.398;11.762;2023-05-31T02:13:28;4.05;;;2.35;;
12480;SDS011;6305;48.398;11.762;2023-05-31T02:15:56;3.67;;;2.25;;
12480;SDS011;6305;48.398;11.762;2023-05-31T02:18:25;5.00;;;2.60;;
12480;SDS011;6305;48.398;11.762;2023-05-31T02:20:53;5.43;;;2.08;;
12480;SDS011;6305;48.398;11.762;2023-05-31T02:23:20;4.93;;;2.22;;
12480;SDS011;6305;48.398;11.762;2023-05-31T02:25:47;4.80;;;1.98;;
12480;SDS011;6305;48.398;11.762;2023-05-31T02:28:15;3.90;;;2.00;;
12480;SDS011;6305;48.398;11.762;2023-05-31T02:30:52;3.67;;;2.10;;
12480;SDS011;6305;48.398;11.762;2023-05-31T02:33:20;4.60;;;2.00;;
12480;SDS011;6305;48.398;11.762;2023-05-31T02:35:49;3.85;;;2.10;;
12480;SDS011;6305;48.398;11.762;2023-05-31T02:38:16;3.67;;;2.28;;
12480;SDS011;6305;48.398;11.762;2023-05-31T02:40:43;3.50;;;2.40;;
12480;SDS011;6305;48.398;11.762;2023-05-31T02:43:10;5.70;;;2.30;;
12480;SDS011;6305;48.398;11.762;2023-05-31T02:45:37;6.03;;;2.30;;
12480;SDS011;6305;48.398;11.762;2023-05-31T02:48:05;4.63;;;2.40;;
12480;SDS011;6305;48.398;11.762;2023-05-31T02:50:33;3.75;;;2.15;;
12480;SDS011;6305;48.398;11.762;2023-05-31T02:53:02;6.43;;;2.40;;
12480;SDS011;6305;48.398;11.762;2023-05-31T02:55:51;5.20;;;2.22;;
12480;SDS011;6305;48.398;11.762;2023-05-31T02:58:18;4.25;;;2.05;;
12480;SDS011;6305;48.398;11.762;2023-05-31T03:01:18;4.60;;;1.90;;
12480;SDS011;6305;48.398;11.762;2023-05-31T03:03:58;3.05;;;1.80;;
12480;SDS011;6305;48.398;11.762;2023-05-31T03:06:29;4.28;;;2.10;;
12480;SDS011;6305;48.398;11.762;2023-05-31T03:08:58;7.68;;;2.22;;
12480;SDS011;6305;48.398;11.762;2023-05-31T03:11:26;5.18;;;2.30;;
12480;SDS011;6305;48.398;11.762;2023-05-31T03:13:54;3.63;;;2.38;;
12480;SDS011;6305;48.398;11.762;2023-05-31T03:16:23;3.38;;;2.40;;
12480;SDS011;6305;48.398;11.762;2023-05-31T03:18:50;2.85;;;1.83;;
12480;SDS011;6305;48.398;11.762;2023-05-31T03:21:17;3.10;;;2.00;;
12480;SDS011;6305;48.398;11.762;2023-05-31T03:23:44;5.07;;;2.38;;
12480;SDS011;6305;48.398;11.762;2023-05-31T03:26:13;3.83;;;2.45;;
12480;SDS011;6305;48.398;11.762;2023-05-31T03:28:40;4.28;;;2.10;;
12480;SDS011;6305;48.398;11.762;2023-05-31T03:31:07;6.22;;;2.33;;
12480;SDS011;6305;48.398;11.762;2023-05-31T03:33:34;4.55;;;2.35;;
12480;SDS011;6305;48.398;11.762;2023-05-31T03:36:02;4.55;;;1.90;;
12480;SDS011;6305;48.398;11.762;2023-05-31T03:38:29;4.55;;;2.05;;
12480;SDS011;6305;48.398;11.762;2023-05-31T03:40:56;4.05;;;2.20;;
12480;SDS011;6305;48.398;11.762;2023-05-31T03:43:25;4.30;;;2.13;;
12480;SDS011;6305;48.398;11.762;2023-05-31T03:45:53;4.85;;;2.03;;
12480;SDS011;6305;48.398;11.762;2023-05-31T03:48:20;2.72;;;2.05;;
12480;SDS011;6305;48.398;11.762;2023-05-31T03:50:48;5.15;;;2.17;;
12480;SDS011;6305;48.398;11.762;2023-05-31T03:53:15;4.20;;;2.28;;
12480;SDS011;6305;48.398;11.762;2023-05-31T03:55:42;3.60;;;1.98;;
12480;SDS011;6305;48.398;11.762;2023-05-31T03:58:08;4.22;;;2.25;;
12480;SDS011;6305;48.398;11.762;2023-05-31T04:00:40;4.53;;;2.05;;
12480;SDS011;6305;48.398;11.762;2023-05-31T04:03:07;3.50;;;2.22;;
12480;SDS011;6305;48.398;11.762;2023-05-31T04:05:37;4.75;;;2.13;;
12480;SDS011;6305;48.398;11.762;2023-05-31T04:08:06;4.20;;;2.30;;
12480;SDS011;6305;48.398;11.762;2023-05-31T04:10:33;4.85;;;2.38;;
12480;SDS011;6305;48.398;11.762;2023-05-31T04:13:01;3.08;;;1.80;;
12480;SDS011;6305;48.398;11.762;2023-05-31T04:15:28;3.47;;;2.33;;
12480;SDS011;6305;48.398;11.762;2023-05-31T04:18:00;3.20;;;2.20;;
12480;SDS011;6305;48.398;11.762;2023-05-31T04:20:27;6.25;;;2.40;;
12480;SDS011;6305;48.398;11.762;2023-05-31T04:22:54;3.35;;;2.00;;
12480;SDS011;6305;48.398;11.762;2023-05-31T04:25:23;3.08;;;1.92;;
12480;SDS011;6305;48.398;11.762;2023-05-31T04:27:51;5.63;;;2.22;;
12480;SDS011;6305;48.398;11.762;2023-05-31T04:30:18;6.82;;;2.45;;
12480;SDS011;6305;48.398;11.762;2023-05-31T04:32:45;5.50;;;2.40;;
12480;SDS011;6305;48.398;11.762;2023-05-31T04:35:19;3.50;;;2.25;;
12480;SDS011;6305;48.398;11.762;2023-05-31T04:37:49;6.20;;;2.30;;
12480;SDS011;6305;48.398;11.762;2023-05-31T04:40:18;4.93;;;2.53;;
12480;SDS011;6305;48.398;11.762;2023-05-31T04:42:46;3.78;;;2.10;;
12480;SDS011;6305;48.398;11.762;2023-05-31T04:45:23;3.55;;;2.00;;
12480;SDS011;6305;48.398;11.762;2023-05-31T04:47:51;5.55;;;2.33;;
12480;SDS011;6305;48.398;11.762;2023-05-31T04:50:20;5.93;;;2.17;;
12480;SDS011;6305;48.398;11.762;2023-05-31T04:52:47;3.40;;;2.00;;
12480;SDS011;6305;48.398;11.762;2023-05-31T04:55:16;3.67;;;2.25;;
12480;SDS011;6305;48.398;11.762;2023-05-31T04:57:43;3.33;;;2.20;;
12480;SDS011;6305;48.398;11.762;2023-05-31T05:00:12;4.30;;;2.50;;
12480;SDS011;6305;48.398;11.762;2023-05-31T05:02:54;6.13;;;2.80;;
12480;SDS011;6305;48.398;11.762;2023-05-31T05:05:22;5.47;;;2.17;;
12480;SDS011;6305;48.398;11.762;2023-05-31T05:07:51;7.05;;;2.42;;
12480;SDS011;6305;48.398;11.762;2023-05-31T05:10:19;4.90;;;2.22;;
12480;SDS011;6305;48.398;11.762;2023-05-31T05:12:46;4.30;;;2.45;;
12480;SDS011;6305;48.398;11.762;2023-05-31T05:15:14;4.70;;;2.10;;
12480;SDS011;6305;48.398;11.762;2023-05-31T05:17:42;5.18;;;2.28;;
12480;SDS011;6305;48.398;11.762;2023-05-31T05:20:11;4.10;;;2.03;;
12480;SDS011;6305;48.398;11.762;2023-05-31T05:22:41;4.28;;;2.20;;
12480;SDS011;6305;48.398;11.762;2023-05-31T05:25:15;3.38;;;2.30;;
12480;SDS011;6305;48.398;11.762;2023-05-31T05:27:43;4.65;;;2.45;;
12480;SDS011;6305;48.398;11.762;2023-05-31T05:30:10;4.90;;;2.40;;
12480;SDS011;6305;48.398;11.762;2023-05-31T05:32:38;3.65;;;2.30;;
12480;SDS011;6305;48.398;11.762;2023-05-31T05:35:05;6.03;;;2.50;;
12480;SDS011;6305;48.398;11.762;2023-05-31T05:37:34;5.80;;;2.33;;
12480;SDS011;6305;48.398;11.762;2023-05-31T05:40:02;4.63;;;2.30;;
12480;SDS011;6305;48.398;11.762;2023-05-31T05:42:32;3.67;;;2.10;;
12480;SDS011;6305;48.398;11.762;2023-05-31T05:45:03;5.30;;;2.17;;
12480;SDS011;6305;48.398;11.762;2023-05-31T05:47:32;3.85;;;2.58;;
12480;SDS011;6305;48.398;11.762;2023-05-31T05:50:01;4.47;;;2.30;;
12480;SDS011;6305;48.398;11.762;2023-05-31T05:52:29;4.60;;;2.45;;
12480;SDS011;6305;48.398;11.762;2023-05-31T05:54:56;3.58;;;2.40;;
12480;SDS011;6305;48.398;11.762;2023-05-31T05:57:24;3.15;;;2.30;;
12480;SDS011;6305;48.398;11.762;2023-05-31T05:59:56;5.05;;;2.30;;
12480;SDS011;6305;48.398;11.762;2023-05-31T06:02:23;5.68;;;2.20;;
12480;SDS011;6305;48.398;11.762;2023-05-31T06:04:53;3.50;;;2.42;;
12480;SDS011;6305;48.398;11.762;2023-05-31T06:07:22;4.07;;;2.13;;
12480;SDS011;6305;48.398;11.762;2023-05-31T06:09:50;4.97;;;2.38;;
12480;SDS011;6305;48.398;11.762;2023-05-31T06:12:19;4.35;;;2.42;;
12480;SDS011;6305;48.398;11.762;2023-05-31T06:14:47;5.63;;;2.42;;
12480;SDS011;6305;48.398;11.762;2023-05-31T06:17:15;5.10;;;2.35;;
12480;SDS011;6305;48.398;11.762;2023-05-31T06:19:42;6.32;;;2.42;;
12480;SDS011;6305;48.398;11.762;2023-05-31T06:22:09;3.80;;;2.28;;
12480;SDS011;6305;48.398;11.762;2023-05-31T06:24:36;3.90;;;2.30;;
12480;SDS011;6305;48.398;11.762;2023-05-31T06:27:03;3.92;;;2.30;;
12480;SDS011;6305;48.398;11.762;2023-05-31T06:29:35;3.10;;;2.10;;
12480;SDS011;6305;48.398;11.762;2023-05-31T06:32:08;4.22;;;2.20;;
12480;SDS011;6305;48.398;11.762;2023-05-31T06:34:40;5.45;;;2.30;;
12480;SDS011;6305;48.398;11.762;2023-05-31T06:37:07;3.83;;;2.20;;
12480;SDS011;6305;48.398;11.762;2023-05-31T06:39:34;5.40;;;2.60;;
12480;SDS011;6305;48.398;11.762;2023-05-31T06:42:01;5.60;;;2.28;;
12480;SDS011;6305;48.398;11.762;2023-05-31T06:44:34;6.55;;;2.35;;
12480;SDS011;6305;48.398;11.762;2023-05-31T06:47:14;4.63;;;2.22;;
12480;SDS011;6305;48.398;11.762;2023-05-31T06:50:00;4.13;;;2.03;;
12480;SDS011;6305;48.398;11.762;2023-05-31T06:52:56;4.53;;;2.25;;
12480;SDS011;6305;48.398;11.762;2023-05-31T06:55:23;3.53;;;2.05;;
12480;SDS011;6305;48.398;11.762;2023-05-31T06:57:51;3.30;;;2.42;;
12480;SDS011;6305;48.398;11.762;2023-05-31T07:00:18;5.38;;;2.03;;
12480;SDS011;6305;48.398;11.762;2023-05-31T07:02:47;4.38;;;2.50;;
12480;SDS011;6305;48.398;11.762;2023-05-31T07:05:14;4.25;;;2.45;;
12480;SDS011;6305;48.398;11.762;2023-05-31T07:07:41;3.40;;;2.38;;
12480;SDS011;6305;48.398;11.762;2023-05-31T07:10:09;3.85;;;2.13;;
12480;SDS011;6305;48.398;11.762;2023-05-31T07:12:36;5.35;;;2.40;;
12480;SDS011;6305;48.398;11.762;2023-05-31T07:15:04;5.38;;;2.45;;
12480;SDS011;6305;48.398;11.762;2023-05-31T07:17:32;3.92;;;1.95;;
12480;SDS011;6305;48.398;11.762;2023-05-31T07:20:00;5.30;;;2.60;;
12480;SDS011;6305;48.398;11.762;2023-05-31T07:22:28;5.03;;;2.55;;
12480;SDS011;6305;48.398;11.762;2023-05-31T07:24:55;3.70;;;2.08;;
12480;SDS011;6305;48.398;11.762;2023-05-31T07:27:23;4.63;;;1.90;;
12480;SDS011;6305;48.398;11.762;2023-05-31T07:29:49;4.45;;;2.10;;
12480;SDS011;6305;48.398;11.762;2023-05-31T07:32:17;8.02;;;2.58;;
12480;SDS011;6305;48.398;11.762;2023-05-31T07:34:44;3.60;;;2.35;;
12480;SDS011;6305;48.398;11.762;2023-05-31T07:37:12;5.18;;;2.58;;
12480;SDS011;6305;48.398;11.762;2023-05-31T07:39:39;5.90;;;2.40;;
12480;SDS011;6305;48.398;11.762;2023-05-31T07:42:06;5.47;;;2.10;;
12480;SDS011;6305;48.398;11.762;2023-05-31T07:44:33;4.13;;;2.38;;
12480;SDS011;6305;48.398;11.762;2023-05-31T07:47:00;3.92;;;2.08;;
12480;SDS011;6305;48.398;11.762;2023-05-31T07:49:27;3.65;;;2.10;;
12480;SDS011;6305;48.398;11.762;2023-05-31T07:51:54;3.08;;;1.90;;
12480;SDS011;6305;48.398;11.762;2023-05-31T07:54:23;2.88;;;1.90;;
12480;SDS011;6305;48.398;11.762;2023-05-31T07:56:50;4.20;;;2.30;;
12480;SDS011;6305;48.398;11.762;2023-05-31T07:59:16;3.63;;;2.22;;
12480;SDS011;6305;48.398;11.762;2023-05-31T08:01:45;5.00;;;2.13;;
12480;SDS011;6305;48.398;11.762;2023-05-31T08:04:12;3.42;;;2.35;;
12480;SDS011;6305;48.398;11.762;2023-05-31T08:06:39;3.95;;;1.95;;
12480;SDS011;6305;48.398;11.762;2023-05-31T08:09:07;4.20;;;2.10;;
12480;SDS011;6305;48.398;11.762;2023-05-31T08:11:36;5.15;;;2.50;;
12480;SDS011;6305;48.398;11.762;2023-05-31T08:14:03;3.85;;;2.63;;
12480;SDS011;6305;48.398;11.762;2023-05-31T08:16:31;4.53;;;2.45;;
12480;SDS011;6305;48.398;11.762;2023-05-31T08:18:59;4.07;;;2.10;;
12480;SDS011;6305;48.398;11.762;2023-05-31T08:21:26;6.78;;;2.72;;
12480;SDS011;6305;48.398;11.762;2023-05-31T08:23:53;5.75;;;2.30;;
12480;SDS011;6305;48.398;11.762;2023-05-31T08:26:20;4.90;;;2.30;;
12480;SDS011;6305;48.398;11.762;2023-05-31T08:28:50;3.83;;;2.15;;
12480;SDS011;6305;48.398;11.762;2023-05-31T08:31:18;3.50;;;2.40;;
12480;SDS011;6305;48.398;11.762;2023-05-31T08:33:54;3.97;;;2.55;;
12480;SDS011;6305;48.398;11.762;2023-05-31T08:36:22;3.15;;;2.10;;
12480;SDS011;6305;48.398;11.762;2023-05-31T08:38:50;8.32;;;3.03;;
12480;SDS011;6305;48.398;11.762;2023-05-31T08:41:18;4.90;;;2.35;;
12480;SDS011;6305;48.398;11.762;2023-05-31T08:43:45;5.93;;;2.75;;
12480;SDS011;6305;48.398;11.762;2023-05-31T08:46:15;5.13;;;2.30;;
12480;SDS011;6305;48.398;11.762;2023-05-31T08:48:43;3.55;;;2.30;;
12480;SDS011;6305;48.398;11.762;2023-05-31T08:51:16;4.22;;;2.30;;
12480;SDS011;6305;48.398;11.762;2023-05-31T08:53:43;3.72;;;2.38;;
12480;SDS011;6305;48.398;11.762;2023-05-31T08:56:12;6.18;;;2.40;;
12480;SDS011;6305;48.398;11.762;2023-05-31T08:58:42;5.53;;;2.50;;
12480;SDS011;6305;48.398;11.762;2023-05-31T09:01:09;3.35;;;2.20;;
12480;SDS011;6305;48.398;11.762;2023-05-31T09:03:38;5.63;;;2.30;;
12480;SDS011;6305;48.398;11.762;2023-05-31T09:06:07;4.40;;;2.20;;
12480;SDS011;6305;48.398;11.762;2023-05-31T09:08:34;3.58;;;2.20;;
12480;SDS011;6305;48.398;11.762;2023-05-31T09:11:01;5.10;;;2.35;;
12480;SDS011;6305;48.398;11.762;2023-05-31T09:13:28;3.25;;;2.30;;
12480;SDS011;6305;48.398;11.762;2023-05-31T09:15:55;6.03;;;2.63;;
12480;SDS011;6305;48.398;11.762;2023-05-31T09:18:24;6.75;;;2.50;;
12480;SDS011;6305;48.398;11.762;2023-05-31T09:20:57;4.22;;;2.30;;
12480;SDS011;6305;48.398;11.762;2023-05-31T09:23:24;3.58;;;2.05;;
12480;SDS011;6305;48.398;11.762;2023-05-31T09:25:52;5.95;;;2.47;;
12480;SDS011;6305;48.398;11.762;2023-05-31T09:28:20;5.22;;;2.50;;
12480;SDS011;6305;48.398;11.762;2023-05-31T09:31:00;3.92;;;2.08;;
12480;SDS011;6305;48.398;11.762;2023-05-31T09:33:36;4.25;;;2.22;;
12480;SDS011;6305;48.398;11.762;2023-05-31T09:36:06;3.40;;;2.40;;
12480;SDS011;6305;48.398;11.762;2023-05-31T09:38:35;3.70;;;2.08;;
12480;SDS011;6305;48.398;11.762;2023-05-31T09:41:12;3.92;;;2.35;;
12480;SDS011;6305;48.398;11.762;2023-05-31T09:43:46;2.90;;;2.10;;
12480;SDS011;6305;48.398;11.762;2023-05-31T09:46:14;5.10;;;2.40;;
12480;SDS011;6305;48.398;11.762;2023-05-31T09:48:42;4.82;;;2.65;;
12480;SDS011;6305;48.398;11.762;2023-05-31T09:51:11;4.45;;;2.58;;
12480;SDS011;6305;48.398;11.762;2023-05-31T09:53:40;4.97;;;2.83;;
12480;SDS011;6305;48.398;11.762;2023-05-31T09:56:09;3.50;;;2.30;;
12480;SDS011;6305;48.398;11.762;2023-05-31T09:58:37;7.35;;;2.50;;
12480;SDS011;6305;48.398;11.762;2023-05-31T10:01:05;5.90;;;2.67;;
12480;SDS011;6305;48.398;11.762;2023-05-31T10:03:33;7.18;;;3.10;;
12480;SDS011;6305;48.398;11.762;2023-05-31T10:06:00;3.47;;;2.30;;
12480;SDS011;6305;48.398;11.762;2023-05-31T10:08:30;3.92;;;2.08;;
12480;SDS011;6305;48.398;11.762;2023-05-31T10:10:57;4.80;;;2.45;;
12480;SDS011;6305;48.398;11.762;2023-05-31T10:13:26;3.25;;;2.10;;
12480;SDS011;6305;48.398;11.762;2023-05-31T10:15:54;3.30;;;2.10;;
12480;SDS011;6305;48.398;11.762;2023-05-31T10:18:24;5.13;;;2.28;;
12480;SDS011;6305;48.398;11.762;2023-05-31T10:20:56;5.78;;;2.30;;
12480;SDS011;6305;48.398;11.762;2023-05-31T10:23:26;4.70;;;2.35;;
12480;SDS011;6305;48.398;11.762;2023-05-31T10:25:59;3.95;;;2.30;;
12480;SDS011;6305;48.398;11.762;2023-05-31T10:28:36;4.65;;;2.30;;
12480;SDS011;6305;48.398;11.762;2023-05-31T10:31:09;7.13;;;2.67;;
12480;SDS011;6305;48.398;11.762;2023-05-31T10:33:38;3.85;;;2.30;;
12480;SDS011;6305;48.398;11.762;2023-05-31T10:36:09;8.48;;;2.55;;
12480;SDS011;6305;48.398;11.762;2023-05-31T10:38:38;3.65;;;2.45;;
12480;SDS011;6305;48.398;11.762;2023-05-31T10:41:15;3.80;;;2.10;;
12480;SDS011;6305;48.398;11.762;2023-05-31T10:43:46;4.45;;;2.35;;
12480;SDS011;6305;48.398;11.762;2023-05-31T10:46:20;5.85;;;2.50;;
12480;SDS011;6305;48.398;11.762;2023-05-31T10:48:52;3.65;;;2.35;;
12480;SDS011;6305;48.398;11.762;2023-05-31T10:51:30;5.43;;;2.72;;
12480;SDS011;6305;48.398;11.762;2023-05-31T10:54:04;4.57;;;2.55;;
12480;SDS011;6305;48.398;11.762;2023-05-31T10:56:33;6.43;;;2.92;;
12480;SDS011;6305;48.398;11.762;2023-05-31T10:59:02;6.53;;;2.65;;
12480;SDS011;6305;48.398;11.762;2023-05-31T11:01:30;4.07;;;2.72;;
12480;SDS011;6305;48.398;11.762;2023-05-31T11:03:57;4.32;;;3.00;;
12480;SDS011;6305;48.398;11.762;2023-05-31T11:06:26;5.13;;;3.22;;
12480;SDS011;6305;48.398;11.762;2023-05-31T11:08:58;6.88;;;2.70;;
12480;SDS011;6305;48.398;11.762;2023-05-31T11:11:27;4.55;;;2.95;;
12480;SDS011;6305;48.398;11.762;2023-05-31T11:13:56;4.45;;;2.85;;
12480;SDS011;6305;48.398;11.762;2023-05-31T11:16:24;4.80;;;2.83;;
12480;SDS011;6305;48.398;11.762;2023-05-31T11:19:01;4.00;;;2.97;;
12480;SDS011;6305;48.398;11.762;2023-05-31T11:21:45;3.40;;;2.85;;
12480;SDS011;6305;48.398;11.762;2023-05-31T11:24:24;3.50;;;2.88;;
12480;SDS011;6305;48.398;11.762;2023-05-31T11:26:52;3.92;;;2.70;;
12480;SDS011;6305;48.398;11.762;2023-05-31T11:29:20;3.75;;;3.00;;
12480;SDS011;6305;48.398;11.762;2023-05-31T11:32:00;4.07;;;2.75;;
12480;SDS011;6305;48.398;11.762;2023-05-31T11:34:27;5.97;;;3.17;;
12480;SDS011;6305;48.398;11.762;2023-05-31T11:36:57;3.10;;;2.65;;
12480;SDS011;6305;48.398;11.762;2023-05-31T11:39:25;5.25;;;2.88;;
12480;SDS011;6305;48.398;11.762;2023-05-31T11:41:53;4.55;;;3.00;;
12480;SDS011;6305;48.398;11.762;2023-05-31T11:44:25;4.45;;;3.17;;
12480;SDS011;6305;48.398;11.762;2023-05-31T11:46:55;4.72;;;2.97;;
12480;SDS011;6305;48.398;11.762;2023-05-31T11:49:27;7.30;;;2.97;;
12480;SDS011;6305;48.398;11.762;2023-05-31T11:51:56;8.30;;;3.10;;
12480;SDS011;6305;48.398;11.762;2023-05-31T11:54:25;4.13;;;2.85;;
12480;SDS011;6305;48.398;11.762;2023-05-31T11:56:54;7.20;;;3.50;;
12480;SDS011;6305;48.398;11.762;2023-05-31T11:59:25;5.35;;;3.40;;
12480;SDS011;6305;48.398;11.762;2023-05-31T12:01:56;4.70;;;3.08;;
12480;SDS011;6305;48.398;11.762;2023-05-31T12:04:28;5.22;;;3.53;;
12480;SDS011;6305;48.398;11.762;2023-05-31T12:06:58;7.50;;;3.40;;
12480;SDS011;6305;48.398;11.762;2023-05-31T12:09:25;5.50;;;3.67;;
12480;SDS011;6305;48.398;11.762;2023-05-31T12:11:53;5.93;;;3.28;;
12480;SDS011;6305;48.398;11.762;2023-05-31T12:14:22;5.18;;;3.00;;
12480;SDS011;6305;48.398;11.762;2023-05-31T12:16:50;5.40;;;3.28;;
12480;SDS011;6305;48.398;11.762;2023-05-31T12:19:17;3.97;;;3.25;;
12480;SDS011;6305;48.398;11.762;2023-05-31T12:21:44;5.65;;;3.58;;
12480;SDS011;6305;48.398;11.762;2023-05-31T12:24:12;3.58;;;3.25;;
12480;SDS011;6305;48.398;11.762;2023-05-31T12:26:41;4.95;;;3.28;;
12480;SDS011;6305;48.398;11.762;2023-05-31T12:29:10;4.95;;;3.40;;
12480;SDS011;6305;48.398;11.762;2023-05-31T12:31:37;4.25;;;3.33;;
12480;SDS011;6305;48.398;11.762;2023-05-31T12:34:07;5.05;;;3.50;;
12480;SDS011;6305;48.398;11.762;2023-05-31T12:36:38;7.68;;;3.47;;
12480;SDS011;6305;48.398;11.762;2023-05-31T12:39:07;8.43;;;3.88;;
12480;SDS011;6305;48.398;11.762;2023-05-31T12:41:36;7.57;;;3.40;;
12480;SDS011;6305;48.398;11.762;2023-05-31T12:44:05;3.95;;;3.03;;
12480;SDS011;6305;48.398;11.762;2023-05-31T12:46:36;6.65;;;3.35;;
12480;SDS011;6305;48.398;11.762;2023-05-31T12:49:12;6.63;;;3.10;;
12480;SDS011;6305;48.398;11.762;2023-05-31T12:51:39;5.50;;;2.95;;
12480;SDS011;6305;48.398;11.762;2023-05-31T12:54:10;5.57;;;3.10;;
12480;SDS011;6305;48.398;11.762;2023-05-31T12:56:38;5.00;;;3.45;;
12480;SDS011;6305;48.398;11.762;2023-05-31T12:59:05;4.32;;;3.13;;
12480;SDS011;6305;48.398;11.762;2023-05-31T13:01:34;3.20;;;2.85;;
12480;SDS011;6305;48.398;11.762;2023-05-31T13:04:03;4.95;;;3.15;;
12480;SDS011;6305;48.398;11.762;2023-05-31T13:06:33;5.97;;;3.50;;
12480;SDS011;6305;48.398;11.762;2023-05-31T13:09:01;7.60;;;3.28;;
12480;SDS011;6305;48.398;11.762;2023-05-31T13:11:31;5.65;;;3.28;;
12480;SDS011;6305;48.398;11.762;2023-05-31T13:14:00;3.80;;;3.22;;
12480;SDS011;6305;48.398;11.762;2023-05-31T13:16:29;6.45;;;3.42;;
12480;SDS011;6305;48.398;11.762;2023-05-31T13:18:56;4.22;;;3.28;;
12480;SDS011;6305;48.398;11.762;2023-05-31T13:21:23;6.22;;;3.28;;
12480;SDS011;6305;48.398;11.762;2023-05-31T13:23:51;5.03;;;3.00;;
12480;SDS011;6305;48.398;11.762;2023-05-31T13:26:19;7.70;;;3.20;;
12480;SDS011;6305;48.398;11.762;2023-05-31T13:28:47;5.88;;;2.90;;
12480;SDS011;6305;48.398;11.762;2023-05-31T13:31:14;4.78;;;3.40;;
12480;SDS011;6305;48.398;11.762;2023-05-31T13:33:41;3.90;;;3.03;;
12480;SDS011;6305;48.398;11.762;2023-05-31T13:36:08;4.75;;;3.20;;
12480;SDS011;6305;48.398;11.762;2023-05-31T13:38:35;4.35;;;3.00;;
12480;SDS011;6305;48.398;11.762;2023-05-31T13:41:04;5.13;;;3.35;;
12480;SDS011;6305;48.398;11.762;2023-05-31T13:43:31;5.53;;;3.30;;
12480;SDS011;6305;48.398;11.762;2023-05-31T13:45:59;5.18;;;3.90;;
12480;SDS011;6305;48.398;11.762;2023-05-31T13:48:27;3.85;;;3.17;;
12480;SDS011;6305;48.398;11.762;2023-05-31T13:50:53;4.28;;;3.15;;
12480;SDS011;6305;48.398;11.762;2023-05-31T13:53:20;4.75;;;3.28;;
12480;SDS011;6305;48.398;11.762;2023-05-31T13:55:48;4.97;;;3.38;;
12480;SDS011;6305;48.398;11.762;2023-05-31T13:58:16;3.97;;;2.80;;
12480;SDS011;6305;48.398;11.762;2023-05-31T14:00:43;5.28;;;2.97;;
12480;SDS011;6305;48.398;11.762;2023-05-31T14:03:10;5.45;;;3.10;;
12480;SDS011;6305;48.398;11.762;2023-05-31T14:05:37;4.20;;;3.45;;
12480;SDS011;6305;48.398;11.762;2023-05-31T14:08:05;4.20;;;3.05;;
12480;SDS011;6305;48.398;11.762;2023-05-31T14:10:33;5.47;;;2.92;;
12480;SDS011;6305;48.398;11.762;2023-05-31T14:13:00;5.75;;;2.92;;
12480;SDS011;6305;48.398;11.762;2023-05-31T14:15:30;4.50;;;3.15;;
12480;SDS011;6305;48.398;11.762;2023-05-31T14:17:57;4.78;;;3.35;;
12480;SDS011;6305;48.398;11.762;2023-05-31T14:20:24;4.57;;;3.22;;
12480;SDS011;6305;48.398;11.762;2023-05-31T14:22:51;5.57;;;3.47;;
12480;SDS011;6305;48.398;11.762;2023-05-31T14:25:18;4.80;;;3.30;;
12480;SDS011;6305;48.398;11.762;2023-05-31T14:27:45;5.45;;;3.30;;
12480;SDS011;6305;48.398;11.762;2023-05-31T14:30:12;3.58;;;3.00;;
12480;SDS011;6305;48.398;11.762;2023-05-31T14:32:41;6.00;;;3.53;;
12480;SDS011;6305;48.398;11.762;2023-05-31T14:35:09;6.15;;;3.20;;
12480;SDS011;6305;48.398;11.762;2023-05-31T14:37:36;5.25;;;3.30;;
12480;SDS011;6305;48.398;11.762;2023-05-31T14:40:04;6.00;;;3.28;;
12480;SDS011;6305;48.398;11.762;2023-05-31T14:42:32;3.88;;;3.22;;
12480;SDS011;6305;48.398;11.762;2023-05-31T14:44:59;7.75;;;3.50;;
12480;SDS011;6305;48.398;11.762;2023-05-31T14:47:28;6.72;;;3.53;;
12480;SDS011;6305;48.398;11.762;2023-05-31T14:49:57;6.63;;;3.22;;
12480;SDS011;6305;48.398;11.762;2023-05-31T14:52:24;5.80;;;3.17;;
12480;SDS011;6305;48.398;11.762;2023-05-31T14:54:51;3.83;;;3.05;;
12480;SDS011;6305;48.398;11.762;2023-05-31T14:57:18;4.88;;;3.13;;
12480;SDS011;6305;48.398;11.762;2023-05-31T14:59:45;5.10;;;3.40;;